Latest Coastal Weather Observations for Cape Byron

IDN60701

Issued at 12:21 pm EST Friday 27 May 2016 (issued every 10 minutes, with the page automatically refreshed every 10 minutes)

About coastal observations | Map of coastal stations | Coastal observations for NSW | Marine services | Other Formats
Station Details ID: 058216 Name: CAPE BYRON AWS Lat: -28.64 Lon: 153.64 Height: 95.0 m
Data from the previous 72 hours. | See also: Recent months at Cape Byron
Date/Time
EST
Temp

°C
Wind Pressure Rain
since 9am
mm
Weather Cloud Vis
km
Sea
Height
m
Swell
Dir
 
Speed
knots
Gust
knots
hPa Trend Height
m
Period
s
Dir
27/12:19pm 22.4 WNW 15 26 1005.6 - 0.2 - - - - - - -
27/12:00pm 22.0 WNW 12 20 1005.6 - 0.2 Recent precip. - - - - - -
27/11:32am 21.4 WNW 15 25 1006.1 - 0.2 - - - - - - -
27/11:30am 21.6 WNW 15 23 1006.2 - 0.2 - - - - - - -
27/11:00am 21.0 WNW 15 26 1006.4 - 0.0 - - - - - - -
27/10:56am 20.8 WNW 15 26 1006.5 - 0.0 - - - - - - -
27/10:30am 20.7 WNW 12 20 1007.0 - 0.0 - - - - - - -
27/10:00am 20.7 WNW 12 19 1007.5 - 0.0 - - - - - - -
27/09:30am 20.5 WNW 13 22 1007.7 - 0.0 - - - - - - -
27/09:00am 19.6 WNW 11 19 1007.6 - 1.0 - - - - - - -
27/08:30am 19.3 WNW 13 18 1007.4 - 1.0 - - - - - - -
27/08:00am 19.3 WNW 13 22 1007.0 - 1.0 - - - - - - -
27/07:30am 19.2 WNW 11 18 1006.5 - 1.0 - - - - - - -
27/07:00am 19.1 WNW 13 19 1006.1 - 1.0 - - - - - - -
27/06:30am 19.3 NW 11 16 1005.7 - 1.0 - - - - - - -
27/06:00am 19.5 NW 10 17 1006.0 - 1.0 - - - - - - -
27/05:30am 19.3 NNW 5 8 1005.5 - 1.0 - - - - - - -
27/05:00am 19.5 W 11 14 1005.5 - 1.0 - - - - - - -
27/04:30am 19.0 WNW 10 15 1005.1 - 1.0 - - - - - - -
27/04:00am 18.5 NW 6 8 1005.4 - 1.0 - - - - - - -
27/03:30am 17.9 W 7 10 1005.9 - 1.0 - - - - - - -
27/03:00am 17.6 WNW 6 8 1005.5 - 1.0 - - - - - - -
27/02:30am 17.8 WNW 4 6 1005.1 - 1.0 - - - - - - -
27/02:00am 18.0 NW 3 6 1005.4 - 1.0 - - - - - - -
27/01:30am 17.3 NW 4 6 1005.7 - 1.0 - - - - - - -
27/01:00am 17.4 WNW 5 9 1005.6 - 1.0 - - - - - - -
27/12:30am 17.1 NNW 6 9 1005.4 - 1.0 - - - - - - -
27/12:00am 15.8 NW 7 13 1006.7 - 1.0 Recent precip. - - - - - -
 
Date/Time
EST
Temp

°C
Wind Pressure Rain
since 9am
mm
Weather Cloud Vis
km
Sea
Height
m
Swell
Dir
 
Speed
knots
Gust
knots
hPa Trend Height
m
Period
s
Dir
26/11:30pm 15.5 W 10 13 1007.6 - 1.0 - - - - - - -
26/11:00pm 15.9 WSW 11 17 1008.3 - 0.8 - - - - - - -
26/10:30pm 17.7 SW 15 21 1008.5 - 0.0 - - - - - - -
26/10:00pm 18.1 SSW 10 14 1007.5 - 0.0 - - - - - - -
26/09:30pm 19.5 SW 16 23 1007.7 - 0.0 - - - - - - -
26/09:20pm 20.2 W 12 28 1007.8 - 0.0 - - - - - - -
26/09:00pm 21.7 E 5 12 1006.9 - 0.0 - - - - - - -
26/08:30pm 21.9 NNW 8 12 1006.2 - 0.0 - - - - - - -
26/08:00pm 21.9 NW 8 15 1006.4 - 0.0 - - - - - - -
26/07:30pm 21.8 NNW 9 15 1006.5 - 0.0 - - - - - - -
26/07:00pm 21.9 NNW 8 12 1006.7 - 0.0 - - - - - - -
26/06:30pm 22.0 N 11 16 1007.0 - 0.0 - - - - - - -
26/06:00pm 22.1 N 15 22 1006.9 - 0.0 - - - - - - -
26/05:30pm 22.2 N 15 21 1006.6 - 0.0 - - - - - - -
26/05:00pm 22.3 N 15 22 1006.4 - 0.0 - - - - - - -
26/04:30pm 22.5 N 19 26 1006.3 - 0.0 - - - - - - -
26/04:18pm 22.6 N 17 27 1006.5 - 0.0 - - - - - - -
26/04:00pm 22.8 N 18 25 1006.4 - 0.0 - - - - - - -
26/03:30pm 23.0 N 16 22 1006.5 - 0.0 - - - - - - -
26/03:00pm 22.7 N 18 25 1006.7 - 0.0 - - - - - - -
26/02:30pm 22.1 N 18 25 1007.0 - 0.0 - - - - - - -
26/02:00pm 21.8 N 18 26 1007.3 - 0.0 - - - - - - -
26/01:30pm 22.2 N 19 26 1007.7 - 0.0 - - - - - - -
26/01:00pm 22.1 N 19 27 1008.3 - 0.0 - - - - - - -
26/12:34pm 21.8 NNE 18 28 1008.8 - 0.0 - - - - - - -
26/12:30pm 21.7 N 19 27 1009.0 - 0.0 - - - - - - -
26/12:00pm 22.3 N 19 25 1010.1 - 0.0 - - - - - - -
26/11:30am 21.5 N 18 27 1010.7 - 0.0 - - - - - - -
26/11:28am 21.6 N 17 27 1010.7 - 0.0 - - - - - - -
26/11:00am 22.3 N 14 19 1011.3 - 0.0 - - - - - - -
26/10:30am 22.3 N 11 19 1012.1 - 0.0 - - - - - - -
26/10:00am 22.0 N 10 15 1012.7 - 0.0 - - - - - - -
26/09:30am 20.4 N 9 15 1013.2 - 0.0 - - - - - - -
26/09:00am 20.0 N 7 11 1013.6 - 0.0 - - - - - - -
26/08:30am 19.7 N 10 16 1013.6 - 0.0 - - - - - - -
26/08:00am 19.5 N 9 14 1013.6 - 0.0 - - - - - - -
26/07:30am 18.3 N 11 17 1013.3 - 0.0 - - - - - - -
26/07:00am 17.7 N 11 16 1013.6 - 0.0 - - - - - - -
26/06:30am 16.9 NNW 6 11 1013.8 - 0.0 - - - - - - -
26/06:00am 17.5 N 9 13 1013.7 - 0.0 - - - - - - -
26/05:30am 17.3 N 8 16 1013.4 - 0.0 - - - - - - -
26/05:00am 17.6 N 10 15 1013.4 - 0.0 - - - - - - -
26/04:30am 17.7 N 9 16 1013.5 - 0.0 - - - - - - -
26/04:00am 17.9 N 9 16 1013.6 - 0.0 - - - - - - -
26/03:30am 18.5 NNW 9 17 1013.8 - 0.0 - - - - - - -
26/03:00am 17.7 NNW 8 12 1014.1 - 0.0 - - - - - - -
26/02:30am 17.4 N 6 12 1014.5 - 0.0 - - - - - - -
26/02:00am 17.9 NNE 5 10 1015.0 - 0.0 - - - - - - -
26/01:30am 18.2 NNW 7 11 1015.2 - 0.0 - - - - - - -
26/01:00am 18.1 NW 7 12 1015.4 - 0.0 - - - - - - -
26/12:30am 17.8 NNW 6 13 1015.7 - 0.0 - - - - - - -
26/12:00am 16.8 NNE 5 9 1016.1 - 0.0 - - - - - - -
 
Date/Time
EST
Temp

°C
Wind Pressure Rain
since 9am
mm
Weather Cloud Vis
km
Sea
Height
m
Swell
Dir
 
Speed
knots
Gust
knots
hPa Trend Height
m
Period
s
Dir
25/11:30pm 15.9 NW 5 11 1016.1 - 0.0 - - - - - - -
25/11:00pm 16.3 NW 4 9 1016.4 - 0.0 - - - - - - -
25/10:30pm 16.5 NW 4 7 1016.4 - 0.0 - - - - - - -
25/10:00pm 16.0 WNW 4 8 1016.4 - 0.0 - - - - - - -
25/09:30pm 15.5 NW 4 7 1016.5 - 0.0 - - - - - - -
25/09:00pm 15.9 NNW 5 10 1016.7 - 0.0 - - - - - - -
25/08:30pm 16.2 NW 6 9 1016.6 - 0.0 - - - - - - -
25/08:00pm 16.3 NW 6 9 1016.4 - 0.0 - - - - - - -
25/07:30pm 17.8 NW 4 7 1016.5 - 0.0 - - - - - - -
25/07:00pm 20.1 NNE 8 12 1016.4 - 0.0 - - - - - - -
25/06:30pm 19.9 NNE 7 12 1016.3 - 0.0 - - - - - - -
25/06:00pm 19.5 NE 9 11 1015.9 - 0.0 - - - - - - -
25/05:30pm 19.0 ENE 9 11 1015.9 - 0.0 - - - - - - -
25/05:00pm 19.4 ENE 7 9 1015.8 - 0.0 - - - - - - -
25/04:30pm 19.8 ENE 6 8 1015.7 - 0.0 - - - - - - -
25/04:00pm 20.5 ESE 4 7 1015.7 - 0.0 - - - - - - -
25/03:30pm 21.1 E 7 8 1015.7 - 0.0 - - - - - - -
25/03:00pm 21.3 E 6 8 1015.8 - 0.0 - - - - - - -
25/02:30pm 21.7 E 7 8 1015.9 - 0.0 - - - - - - -
25/02:00pm 21.6 ESE 7 9 1016.0 - 0.0 - - - - - - -
25/01:30pm 21.7 ESE 7 8 1016.2 - 0.0 - - - - - - -
25/01:00pm 22.0 SE 6 8 1016.4 - 0.0 - - - - - - -
25/12:30pm 21.5 SSE 7 9 1016.7 - 0.0 - - - - - - -
25/12:00pm 20.8 S 8 10 1017.0 - 0.0 - - - - - - -
25/11:30am 20.6 SSW 9 12 1017.2 - 0.0 - - - - - - -
25/11:00am 20.3 SSW 9 12 1017.6 - 0.0 - - - - - - -
25/10:30am 19.7 SW 8 11 1018.0 - 0.0 - - - - - - -
25/10:00am 18.4 WSW 10 12 1018.0 - 0.0 - - - - - - -
25/09:30am 17.4 WSW 10 13 1018.3 - 0.0 - - - - - - -
25/09:00am 16.8 WSW 13 16 1018.3 - 0.0 - - - - - - -
25/08:30am 16.3 WSW 15 18 1018.3 - 0.0 - - - - - - -
25/08:00am 16.0 WSW 15 18 1017.8 - 0.0 - - - - - - -
25/07:30am 15.8 WSW 15 19 1017.5 - 0.0 - - - - - - -
25/07:00am 15.9 WSW 17 20 1017.2 - 0.0 - - - - - - -
25/06:30am 15.2 WSW 16 20 1016.9 - 0.0 - - - - - - -
25/06:00am 15.7 WSW 18 23 1016.7 - 0.0 - - - - - - -
25/05:30am 15.9 WSW 18 24 1016.3 - 0.0 - - - - - - -
25/05:00am 15.6 WSW 18 21 1016.2 - 0.0 - - - - - - -
25/04:30am 15.9 WSW 17 22 1016.1 - 0.0 - - - - - - -
25/04:00am 15.9 WSW 17 21 1015.9 - 0.0 - - - - - - -
25/03:30am 16.0 WSW 16 21 1015.9 - 0.0 - - - - - - -
25/03:00am 16.8 WSW 15 21 1015.8 - 0.0 - - - - - - -
25/02:30am 17.0 WSW 15 19 1016.0 - 0.0 - - - - - - -
25/02:00am 17.0 W 15 18 1016.1 - 0.0 - - - - - - -
25/01:30am 17.1 W 11 15 1016.4 - 0.0 - - - - - - -
25/01:00am 16.4 WNW 10 13 1016.5 - 0.0 - - - - - - -
25/12:30am 16.2 NW 5 8 1016.4 - 0.0 - - - - - - -
25/12:00am 17.0 NNW 6 11 1016.4 - 0.0 - - - - - - -
 
Date/Time
EST
Temp

°C
Wind Pressure Rain
since 9am
mm
Weather Cloud Vis
km
Sea
Height
m
Swell
Dir
 
Speed
knots
Gust
knots
hPa Trend Height
m
Period
s
Dir
24/11:30pm 16.3 NW 5 8 1016.8 - 0.0 - - - - - - -
24/11:00pm 15.8 NW 5 8 1016.6 - 0.0 - - - - - - -
24/10:30pm 16.3 NW 6 9 1016.6 - 0.0 - - - - - - -
24/10:00pm 16.0 NNW 7 12 1016.7 - 0.0 - - - - - - -
24/09:30pm 15.9 NW 5 7 1016.6 - 0.0 - - - - - - -
24/09:00pm 16.4 N 4 6 1016.6 - 0.0 - - - - - - -
24/08:30pm 15.7 N 4 6 1016.6 - 0.0 - - - - - - -
24/08:00pm 16.1 WNW 4 6 1016.5 - 0.0 - - - - - - -
24/07:30pm 15.7 WNW 7 9 1016.6 - 0.0 - - - - - - -
24/07:00pm 17.1 NW 6 9 1016.5 - 0.0 - - - - - - -
24/06:30pm 19.6 NNE 4 5 1016.3 - 0.0 - - - - - - -
24/06:00pm 19.4 ENE 2 4 1016.2 - 0.0 - - - - - - -
24/05:30pm 19.1 E 4 6 1015.9 - 0.0 - - - - - - -
24/05:00pm 19.1 ESE 7 9 1015.7 - 0.0 - - - - - - -
24/04:30pm 19.8 SE 9 12 1015.6 - 0.0 - - - - - - -
24/04:00pm 20.0 SSE 9 12 1015.8 - 0.0 - - - - - - -
24/03:30pm 20.4 S 12 16 1015.9 - 0.0 - - - - - - -
24/03:00pm 20.4 S 12 16 1015.8 - 0.0 - - - - - - -
24/02:30pm 20.4 S 13 16 1015.8 - 0.0 - - - - - - -
24/02:00pm 20.5 S 13 16 1015.9 - 0.0 - - - - - - -
24/01:30pm 20.5 S 14 17 1015.8 - 0.0 - - - - - - -
24/01:00pm 20.7 S 14 17 1015.9 - 0.0 - - - - - - -
24/12:30pm 20.9 S 13 17 1016.1 - 0.0 - - - - - - -

Other Formats:

Comma delimited format used in spreadsheet applications
http://www.bom.gov.au/fwo/IDN60701/IDN60701.94599.axf

JavaScript Object Notation format (JSON) in row-major order
http://www.bom.gov.au/fwo/IDN60701/IDN60701.94599.json